Time;durP1;ratioP1;P1;durP2;ratioP2;P2;SDS_P1;SDS_P2;PMS_P1;PMS_P2;Temp;Humidity;BMP_temperature;BMP_pressure;BME280_temperature;BME280_humidity;BME280_pressure;Samples;Min_cycle;Max_cycle;Signal;HPM_P1;HPM_P2
2022/09/15 00:02:12;;;;;;;4.00;1.20;;;;;;;;;;5040571;28;20152;-70
2022/09/15 00:04:37;;;;;;;1.58;1.10;;;;;;;;;;5041205;28;20045;-70
2022/09/15 00:07:02;;;;;;;2.30;1.20;;;;;;;;;;5041923;28;20474;-70
2022/09/15 00:09:28;;;;;;;3.08;1.20;;;;;;;;;;5040906;28;20186;-70
2022/09/15 00:11:53;;;;;;;3.63;1.10;;;;;;;;;;5041474;28;20052;-70
2022/09/15 00:14:19;;;;;;;4.50;1.05;;;;;;;;;;5039419;28;20190;-70
2022/09/15 00:16:44;;;;;;;1.45;1.30;;;;;;;;;;5041416;28;20041;-70
2022/09/15 00:19:10;;;;;;;1.73;1.20;;;;;;;;;;5040691;28;20056;-69
2022/09/15 00:21:39;;;;;;;6.28;1.20;;;;;;;;;;5041347;28;20068;-70
2022/09/15 00:24:05;;;;;;;5.97;1.10;;;;;;;;;;5019921;28;20103;-69
2022/09/15 00:26:31;;;;;;;2.17;1.20;;;;;;;;;;5039238;28;20053;-69
2022/09/15 00:28:58;;;;;;;2.95;1.10;;;;;;;;;;5041022;28;20111;-70
2022/09/15 00:31:26;;;;;;;3.45;1.33;;;;;;;;;;5040821;28;20053;-70
2022/09/15 00:33:55;;;;;;;1.35;1.23;;;;;;;;;;5040899;28;20047;-69
2022/09/15 00:36:22;;;;;;;1.60;1.00;;;;;;;;;;5040572;28;20059;-70
2022/09/15 00:38:48;;;;;;;3.88;1.30;;;;;;;;;;5040653;28;20084;-69
2022/09/15 00:41:15;;;;;;;1.85;1.20;;;;;;;;;;5040595;28;20080;-69
2022/09/15 00:43:59;;;;;;;5.82;1.33;;;;;;;;;;5040889;28;20078;-69
2022/09/15 00:46:27;;;;;;;1.55;1.10;;;;;;;;;;5039575;28;20048;-69
2022/09/15 00:49:06;;;;;;;6.20;1.30;;;;;;;;;;5040168;28;20053;-69
2022/09/15 00:51:53;;;;;;;2.40;1.10;;;;;;;;;;5040547;28;20048;-69
2022/09/15 00:54:29;;;;;;;3.58;0.95;;;;;;;;;;5040061;28;20076;-69
2022/09/15 00:56:59;;;;;;;1.40;1.10;;;;;;;;;;5040820;28;20049;-70
2022/09/15 00:59:28;;;;;;;1.50;1.00;;;;;;;;;;5039879;28;20171;-70
2022/09/15 01:01:58;;;;;;;1.40;0.90;;;;;;;;;;5040906;28;20146;-69
2022/09/15 01:04:24;;;;;;;1.20;1.10;;;;;;;;;;5040262;28;20045;-70
2022/09/15 01:06:55;;;;;;;6.45;1.27;;;;;;;;;;5040241;28;20060;-70
2022/09/15 01:09:32;;;;;;;1.25;1.00;;;;;;;;;;5032940;28;20421;-70
2022/09/15 01:11:57;;;;;;;2.50;1.00;;;;;;;;;;5038864;28;20045;-70
2022/09/15 01:14:23;;;;;;;2.20;1.10;;;;;;;;;;5038107;28;20106;-69
2022/09/15 01:17:20;;;;;;;4.00;1.38;;;;;;;;;;5039094;28;20053;-70
2022/09/15 01:20:09;;;;;;;1.90;1.10;;;;;;;;;;5010979;28;20063;-70
2022/09/15 01:23:10;;;;;;;3.80;0.90;;;;;;;;;;5039195;28;20982;-72
2022/09/15 01:26:24;;;;;;;4.20;1.00;;;;;;;;;;5031235;28;20049;-72
2022/09/15 01:29:17;;;;;;;2.35;1.85;;;;;;;;;;5006247;28;20118;-72
2022/09/15 01:34:59;;;;;;;1.65;1.15;;;;;;;;;;5017420;28;20137;-72
2022/09/15 01:37:29;;;;;;;3.20;1.20;;;;;;;;;;5038417;28;20044;-73
2022/09/15 01:39:58;;;;;;;1.80;1.00;;;;;;;;;;5039711;28;20045;-73
2022/09/15 01:42:24;;;;;;;1.23;0.95;;;;;;;;;;5039469;28;20040;-72
2022/09/15 01:45:22;;;;;;;3.47;1.50;;;;;;;;;;5039593;28;20064;-72
2022/09/15 01:47:51;;;;;;;2.65;1.10;;;;;;;;;;5020607;28;20045;-72
2022/09/15 01:50:21;;;;;;;10.32;1.20;;;;;;;;;;5038785;28;20473;-72
2022/09/15 01:52:51;;;;;;;2.13;1.00;;;;;;;;;;5039431;28;20041;-72
2022/09/15 01:55:25;;;;;;;5.78;1.05;;;;;;;;;;5039500;28;20063;-72
2022/09/15 01:57:51;;;;;;;6.10;1.15;;;;;;;;;;5019111;28;20059;-72
2022/09/15 02:00:16;;;;;;;2.95;1.00;;;;;;;;;;5035968;28;20045;-72
2022/09/15 02:02:49;;;;;;;3.35;1.23;;;;;;;;;;5039061;28;20056;-72
2022/09/15 02:05:33;;;;;;;4.20;1.20;;;;;;;;;;5040209;28;21170;-72
2022/09/15 02:08:24;;;;;;;3.42;1.20;;;;;;;;;;5039554;28;20073;-68
2022/09/15 02:11:11;;;;;;;3.05;1.10;;;;;;;;;;5036761;28;20045;-68
2022/09/15 02:13:55;;;;;;;1.48;1.08;;;;;;;;;;5039970;28;20045;-68
2022/09/15 02:16:23;;;;;;;2.42;1.10;;;;;;;;;;5038724;28;20098;-68
2022/09/15 02:19:02;;;;;;;6.22;1.38;;;;;;;;;;5017785;28;20049;-68
2022/09/15 02:21:59;;;;;;;1.80;1.10;;;;;;;;;;5040172;28;20044;-68
2022/09/15 02:24:29;;;;;;;2.47;0.90;;;;;;;;;;5042287;28;20092;-67
2022/09/15 02:26:57;;;;;;;2.35;1.15;;;;;;;;;;5043781;28;20055;-68
2022/09/15 02:29:25;;;;;;;3.10;1.10;;;;;;;;;;5042864;28;20121;-67
2022/09/15 02:31:53;;;;;;;2.17;1.40;;;;;;;;;;5022370;28;20042;-68
2022/09/15 02:34:24;;;;;;;1.13;0.98;;;;;;;;;;5040542;28;20045;-68
2022/09/15 02:36:52;;;;;;;4.60;1.23;;;;;;;;;;5043468;28;20049;-68
2022/09/15 02:39:20;;;;;;;2.28;1.25;;;;;;;;;;5042168;28;20053;-67
2022/09/15 02:41:47;;;;;;;1.83;1.20;;;;;;;;;;5043266;28;20493;-67
2022/09/15 02:44:13;;;;;;;2.33;1.00;;;;;;;;;;5042364;28;20055;-66
2022/09/15 02:46:40;;;;;;;4.28;1.08;;;;;;;;;;5043303;28;20109;-67
2022/09/15 02:49:06;;;;;;;1.80;1.00;;;;;;;;;;5042899;28;20049;-67
2022/09/15 02:51:32;;;;;;;1.75;1.20;;;;;;;;;;5042795;28;20049;-67
2022/09/15 02:53:58;;;;;;;1.25;1.13;;;;;;;;;;5042713;28;20079;-67
2022/09/15 02:56:23;;;;;;;6.97;1.48;;;;;;;;;;5022671;28;20137;-68
2022/09/15 02:58:48;;;;;;;2.45;1.00;;;;;;;;;;5042969;28;20148;-67
2022/09/15 03:01:14;;;;;;;1.63;1.30;;;;;;;;;;5041547;28;20489;-68
2022/09/15 03:03:41;;;;;;;2.17;1.15;;;;;;;;;;5021855;28;20124;-67
2022/09/15 03:06:16;;;;;;;6.05;1.05;;;;;;;;;;5038685;28;20095;-67
2022/09/15 03:08:44;;;;;;;1.83;1.10;;;;;;;;;;5022021;28;20049;-68
2022/09/15 03:11:11;;;;;;;1.88;1.27;;;;;;;;;;5042190;28;20212;-68
2022/09/15 03:13:36;;;;;;;1.02;1.00;;;;;;;;;;5021220;28;20095;-68
2022/09/15 03:16:10;;;;;;;1.40;1.13;;;;;;;;;;5037496;28;20049;-68
2022/09/15 03:18:36;;;;;;;3.00;1.10;;;;;;;;;;5039717;28;20053;-67
2022/09/15 03:21:03;;;;;;;1.48;1.20;;;;;;;;;;5020804;28;20477;-68
2022/09/15 03:23:28;;;;;;;2.38;0.95;;;;;;;;;;5040842;28;20056;-68
2022/09/15 03:25:54;;;;;;;4.32;0.93;;;;;;;;;;5041965;28;20055;-68
2022/09/15 03:28:19;;;;;;;2.72;1.20;;;;;;;;;;5042063;28;20045;-68
2022/09/15 03:30:45;;;;;;;2.53;1.13;;;;;;;;;;5041667;28;20382;-68
2022/09/15 03:33:11;;;;;;;2.03;1.13;;;;;;;;;;5041930;28;20420;-69
2022/09/15 03:35:37;;;;;;;3.80;1.15;;;;;;;;;;5041516;28;20053;-68
2022/09/15 03:38:03;;;;;;;2.75;1.00;;;;;;;;;;5042105;28;20130;-68
2022/09/15 03:40:28;;;;;;;4.75;1.15;;;;;;;;;;5040977;28;20060;-67
2022/09/15 03:42:53;;;;;;;1.77;1.05;;;;;;;;;;5042393;28;20060;-68
2022/09/15 03:45:19;;;;;;;1.98;0.85;;;;;;;;;;5041387;28;20066;-68
2022/09/15 03:47:44;;;;;;;3.17;1.38;;;;;;;;;;5043293;28;20044;-69
2022/09/15 03:50:09;;;;;;;3.58;0.93;;;;;;;;;;5041833;28;20052;-67
2022/09/15 03:52:35;;;;;;;4.57;1.20;;;;;;;;;;5042840;28;20045;-66
2022/09/15 03:55:00;;;;;;;1.88;1.10;;;;;;;;;;5042227;28;20053;-67
2022/09/15 03:57:26;;;;;;;2.00;0.98;;;;;;;;;;5041116;28;20064;-67
2022/09/15 03:59:51;;;;;;;2.55;0.90;;;;;;;;;;5041767;28;20182;-68
2022/09/15 04:02:16;;;;;;;3.42;1.20;;;;;;;;;;5041132;28;20390;-70
2022/09/15 04:04:42;;;;;;;3.17;1.17;;;;;;;;;;5042147;28;20065;-69
2022/09/15 04:07:07;;;;;;;6.13;1.25;;;;;;;;;;5019818;28;20072;-69
2022/09/15 04:09:33;;;;;;;2.00;1.10;;;;;;;;;;5040843;28;20059;-69
2022/09/15 04:11:59;;;;;;;4.75;0.70;;;;;;;;;;5044201;28;20029;-69
2022/09/15 04:14:24;;;;;;;3.38;1.10;;;;;;;;;;5023286;28;20521;-69
2022/09/15 04:16:49;;;;;;;1.10;0.93;;;;;;;;;;5021787;28;20056;-68
2022/09/15 04:19:15;;;;;;;1.83;1.10;;;;;;;;;;5037888;28;20049;-69
2022/09/15 04:21:41;;;;;;;2.78;1.00;;;;;;;;;;5042872;28;20489;-69
2022/09/15 04:24:06;;;;;;;1.38;0.90;;;;;;;;;;5042643;28;20045;-69
2022/09/15 04:26:35;;;;;;;1.80;1.13;;;;;;;;;;5041650;28;20081;-69
2022/09/15 04:29:03;;;;;;;5.03;1.10;;;;;;;;;;5041405;28;20148;-69
2022/09/15 04:31:29;;;;;;;8.07;1.10;;;;;;;;;;5040102;28;20041;-69
2022/09/15 04:33:55;;;;;;;1.85;1.23;;;;;;;;;;5041223;28;20056;-69
2022/09/15 04:36:23;;;;;;;3.72;0.75;;;;;;;;;;5040992;28;20060;-69
2022/09/15 04:38:49;;;;;;;2.58;0.85;;;;;;;;;;5041423;28;20056;-69
2022/09/15 04:41:15;;;;;;;1.15;0.63;;;;;;;;;;5040079;28;20060;-69
2022/09/15 04:43:42;;;;;;;0.80;0.75;;;;;;;;;;5040340;28;20493;-69
2022/09/15 04:46:08;;;;;;;2.65;1.15;;;;;;;;;;5040407;28;20118;-74
2022/09/15 04:48:34;;;;;;;0.90;0.90;;;;;;;;;;5041832;28;20514;-70
2022/09/15 04:51:05;;;;;;;4.32;1.02;;;;;;;;;;5039420;28;20037;-70
2022/09/15 04:53:30;;;;;;;1.03;0.77;;;;;;;;;;5039013;28;20040;-69
2022/09/15 04:56:08;;;;;;;0.73;0.70;;;;;;;;;;5018501;28;20037;-69
2022/09/15 04:58:40;;;;;;;1.15;0.70;;;;;;;;;;5038297;28;20514;-69
2022/09/15 05:01:07;;;;;;;;;;;;;;;;;;5039523;28;20052;-69
2022/09/15 05:03:36;;;;;;;3.40;0.85;;;;;;;;;;5040509;28;20058;-69
2022/09/15 05:06:01;;;;;;;0.60;0.60;;;;;;;;;;5041237;28;20545;-69
2022/09/15 05:08:26;;;;;;;1.40;0.75;;;;;;;;;;5040789;28;20166;-69
2022/09/15 05:10:52;;;;;;;1.80;0.80;;;;;;;;;;5041158;28;20040;-69
2022/09/15 05:13:17;;;;;;;1.20;0.60;;;;;;;;;;5041546;28;20041;-69
2022/09/15 05:15:42;;;;;;;5.22;0.75;;;;;;;;;;5040659;28;20434;-69
2022/09/15 05:18:08;;;;;;;2.47;0.60;;;;;;;;;;5039690;28;20045;-68
2022/09/15 05:20:33;;;;;;;1.75;0.70;;;;;;;;;;5022374;28;20044;-68
2022/09/15 05:22:59;;;;;;;0.88;0.68;;;;;;;;;;5041165;28;20375;-68
2022/09/15 05:25:24;;;;;;;1.10;0.80;;;;;;;;;;5040587;28;20680;-67
2022/09/15 05:27:49;;;;;;;0.98;0.57;;;;;;;;;;5040302;28;20086;-68
2022/09/15 05:30:16;;;;;;;0.73;0.63;;;;;;;;;;5040312;28;20658;-67
2022/09/15 05:32:41;;;;;;;3.42;0.93;;;;;;;;;;5017758;28;20136;-67
2022/09/15 05:35:07;;;;;;;3.78;0.60;;;;;;;;;;5036482;28;20136;-67
2022/09/15 05:37:32;;;;;;;1.70;0.75;;;;;;;;;;5040891;28;20114;-67
2022/09/15 05:39:58;;;;;;;0.70;0.70;;;;;;;;;;5040134;28;20053;-69
2022/09/15 05:42:24;;;;;;;1.30;0.68;;;;;;;;;;5039800;28;20057;-69
2022/09/15 05:44:49;;;;;;;1.20;0.80;;;;;;;;;;5040321;28;20060;-69
2022/09/15 05:47:15;;;;;;;0.60;0.60;;;;;;;;;;5039876;28;20087;-69
2022/09/15 05:49:41;;;;;;;0.98;0.70;;;;;;;;;;5018938;28;20084;-68
2022/09/15 05:52:06;;;;;;;2.42;0.77;;;;;;;;;;5037046;28;20483;-69
2022/09/15 05:54:31;;;;;;;3.40;0.52;;;;;;;;;;5040703;28;20057;-69
2022/09/15 05:56:57;;;;;;;1.10;0.68;;;;;;;;;;5044405;28;20049;-69
2022/09/15 05:59:22;;;;;;;0.70;0.70;;;;;;;;;;5043225;28;20156;-69
2022/09/15 06:01:47;;;;;;;0.93;0.65;;;;;;;;;;5044102;28;20041;-69
2022/09/15 06:04:13;;;;;;;1.58;0.45;;;;;;;;;;5043391;28;20413;-69
2022/09/15 06:06:38;;;;;;;0.80;0.68;;;;;;;;;;5044122;28;20053;-69
2022/09/15 06:09:04;;;;;;;5.68;1.90;;;;;;;;;;5043222;28;20137;-68
2022/09/15 06:11:32;;;;;;;2.25;0.65;;;;;;;;;;5043706;28;20122;-69
2022/09/15 06:14:02;;;;;;;1.15;0.57;;;;;;;;;;5044037;28;20064;-69
2022/09/15 06:16:31;;;;;;;1.98;0.60;;;;;;;;;;5043472;28;20045;-68
2022/09/15 06:18:58;;;;;;;3.17;0.80;;;;;;;;;;5043572;28;20058;-69
2022/09/15 06:21:27;;;;;;;0.68;0.43;;;;;;;;;;5042505;28;20053;-69
2022/09/15 06:24:02;;;;;;;0.90;0.60;;;;;;;;;;5043949;28;20071;-69
2022/09/15 06:26:28;;;;;;;1.20;0.55;;;;;;;;;;5042862;28;20402;-69
2022/09/15 06:28:55;;;;;;;2.53;0.70;;;;;;;;;;5043457;28;20413;-68
2022/09/15 06:31:22;;;;;;;0.75;0.50;;;;;;;;;;5042938;28;20048;-68
2022/09/15 06:33:50;;;;;;;1.70;0.60;;;;;;;;;;5043505;28;20084;-69
2022/09/15 06:36:17;;;;;;;0.63;0.57;;;;;;;;;;5022322;28;20041;-69
2022/09/15 06:38:43;;;;;;;2.13;0.55;;;;;;;;;;5043638;28;20076;-69
2022/09/15 06:41:10;;;;;;;2.17;0.55;;;;;;;;;;5042420;28;20037;-69
2022/09/15 06:43:36;;;;;;;2.50;0.75;;;;;;;;;;5043216;28;20175;-68
2022/09/15 06:46:03;;;;;;;0.82;0.73;;;;;;;;;;5043595;28;20048;-69
2022/09/15 06:48:30;;;;;;;1.00;0.50;;;;;;;;;;5042338;28;20068;-69
2022/09/15 06:50:57;;;;;;;0.95;0.52;;;;;;;;;;5042757;28;20060;-69
2022/09/15 06:53:22;;;;;;;5.68;0.98;;;;;;;;;;5042617;28;20052;-69
2022/09/15 06:55:48;;;;;;;0.88;0.45;;;;;;;;;;5042986;28;20051;-68
2022/09/15 06:58:13;;;;;;;0.60;0.50;;;;;;;;;;5042482;28;20064;-70
2022/09/15 07:00:39;;;;;;;0.68;0.50;;;;;;;;;;5042724;28;20498;-67
2022/09/15 07:03:04;;;;;;;0.50;0.50;;;;;;;;;;5043086;28;20881;-68
2022/09/15 07:05:30;;;;;;;2.40;0.65;;;;;;;;;;5042667;28;20047;-68
2022/09/15 07:07:55;;;;;;;1.23;0.70;;;;;;;;;;5042136;28;20559;-67
2022/09/15 07:10:21;;;;;;;0.45;0.40;;;;;;;;;;5041953;28;20056;-67
2022/09/15 07:12:46;;;;;;;3.83;0.57;;;;;;;;;;5043499;28;20041;-66
2022/09/15 07:15:11;;;;;;;1.15;0.80;;;;;;;;;;5043595;28;20386;-67
2022/09/15 07:17:37;;;;;;;0.85;0.80;;;;;;;;;;5043713;28;20052;-68
2022/09/15 07:20:03;;;;;;;1.58;0.68;;;;;;;;;;5043053;28;20064;-68
2022/09/15 07:22:29;;;;;;;1.98;0.70;;;;;;;;;;5042464;28;20068;-68
2022/09/15 07:24:54;;;;;;;4.57;0.80;;;;;;;;;;5043246;28;20055;-67
2022/09/15 07:27:23;;;;;;;0.90;0.80;;;;;;;;;;5042699;28;20045;-69
2022/09/15 07:29:49;;;;;;;2.25;0.80;;;;;;;;;;5042447;28;20142;-69
2022/09/15 07:32:15;;;;;;;8.82;0.77;;;;;;;;;;5041725;28;20115;-69
2022/09/15 07:34:40;;;;;;;0.68;0.50;;;;;;;;;;5021395;28;20053;-69
2022/09/15 07:37:06;;;;;;;1.27;0.90;;;;;;;;;;5036994;28;20056;-69
2022/09/15 07:39:31;;;;;;;1.40;1.02;;;;;;;;;;5041874;28;20284;-69
2022/09/15 07:41:57;;;;;;;3.10;0.73;;;;;;;;;;5042342;28;20053;-69
2022/09/15 07:44:22;;;;;;;1.92;0.73;;;;;;;;;;5041661;28;20081;-69
2022/09/15 07:46:48;;;;;;;1.65;0.63;;;;;;;;;;5042303;28;20048;-69
2022/09/15 07:49:13;;;;;;;0.88;0.70;;;;;;;;;;5041005;28;20131;-68
2022/09/15 07:51:39;;;;;;;2.17;1.02;;;;;;;;;;5042144;28;20048;-69
2022/09/15 07:54:04;;;;;;;3.47;0.80;;;;;;;;;;5042116;28;20123;-69
2022/09/15 07:56:29;;;;;;;2.15;1.00;;;;;;;;;;5041384;28;20559;-69
2022/09/15 07:58:55;;;;;;;4.13;0.63;;;;;;;;;;5041013;28;20048;-68
2022/09/15 08:01:21;;;;;;;0.95;0.80;;;;;;;;;;5041495;28;20436;-69
2022/09/15 08:03:49;;;;;;;1.45;1.10;;;;;;;;;;5041902;28;20452;-69
2022/09/15 08:06:17;;;;;;;1.42;0.70;;;;;;;;;;5041189;28;20053;-69
2022/09/15 08:08:43;;;;;;;1.58;0.80;;;;;;;;;;5041942;28;20619;-69
2022/09/15 08:11:11;;;;;;;1.17;0.80;;;;;;;;;;5040493;28;20045;-68
2022/09/15 08:13:36;;;;;;;2.03;0.77;;;;;;;;;;5041607;28;20051;-68
2022/09/15 08:16:07;;;;;;;1.10;0.70;;;;;;;;;;5041835;28;20044;-68
2022/09/15 08:18:33;;;;;;;0.55;0.43;;;;;;;;;;5040993;28;20074;-69
2022/09/15 08:20:58;;;;;;;3.25;0.90;;;;;;;;;;5040549;28;20136;-69
2022/09/15 08:23:24;;;;;;;0.80;0.68;;;;;;;;;;5041200;28;20237;-68
2022/09/15 08:25:50;;;;;;;1.27;0.60;;;;;;;;;;5041447;28;20044;-68
2022/09/15 08:28:16;;;;;;;2.17;0.70;;;;;;;;;;5040954;28;20099;-69
2022/09/15 08:30:41;;;;;;;0.90;0.70;;;;;;;;;;5041288;28;20053;-69
2022/09/15 08:33:06;;;;;;;3.53;0.77;;;;;;;;;;5040548;28;20064;-68
2022/09/15 08:35:33;;;;;;;2.15;0.85;;;;;;;;;;5041067;28;20057;-68
2022/09/15 08:37:58;;;;;;;0.95;0.60;;;;;;;;;;5041111;28;20713;-69
2022/09/15 08:40:31;;;;;;;1.73;0.80;;;;;;;;;;5040372;28;20751;-68
2022/09/15 08:43:02;;;;;;;1.88;0.70;;;;;;;;;;5040686;28;20261;-69
2022/09/15 08:45:31;;;;;;;0.70;0.70;;;;;;;;;;5040984;28;20044;-68
2022/09/15 08:48:02;;;;;;;1.38;0.80;;;;;;;;;;5041377;28;20055;-69
2022/09/15 08:50:46;;;;;;;2.90;0.73;;;;;;;;;;5040181;28;20080;-68
2022/09/15 08:53:15;;;;;;;1.05;0.95;;;;;;;;;;5040056;28;20052;-69
2022/09/15 08:56:02;;;;;;;0.50;0.50;;;;;;;;;;5033190;28;20076;-69
2022/09/15 08:58:30;;;;;;;0.85;0.70;;;;;;;;;;5021123;28;20056;-68
2022/09/15 09:01:02;;;;;;;3.10;0.93;;;;;;;;;;5040487;28;20372;-68
2022/09/15 09:03:35;;;;;;;1.33;0.90;;;;;;;;;;5040553;28;20059;-68
2022/09/15 09:06:34;;;;;;;2.28;0.60;;;;;;;;;;5040173;28;20064;-69
2022/09/15 09:09:23;;;;;;;1.67;0.80;;;;;;;;;;5038505;28;20091;-69
2022/09/15 09:12:13;;;;;;;3.63;1.00;;;;;;;;;;5040657;28;20052;-69
2022/09/15 09:14:57;;;;;;;0.85;0.60;;;;;;;;;;5040775;28;20357;-69
2022/09/15 09:17:48;;;;;;;0.85;0.77;;;;;;;;;;5040096;28;20041;-68
2022/09/15 09:20:24;;;;;;;2.50;0.98;;;;;;;;;;5039481;28;21071;-68
2022/09/15 09:22:53;;;;;;;1.33;0.80;;;;;;;;;;5040330;28;20056;-68
2022/09/15 09:25:20;;;;;;;3.42;0.82;;;;;;;;;;5040528;28;20136;-68
2022/09/15 09:27:47;;;;;;;1.35;0.80;;;;;;;;;;5040201;28;20513;-68
2022/09/15 09:30:18;;;;;;;0.88;0.70;;;;;;;;;;5038489;28;20049;-68
2022/09/15 09:32:58;;;;;;;3.20;0.90;;;;;;;;;;5040653;28;20057;-69
2022/09/15 09:35:43;;;;;;;1.33;1.05;;;;;;;;;;5040231;28;20057;-69
2022/09/15 09:38:11;;;;;;;0.90;0.73;;;;;;;;;;5039627;28;20139;-69
2022/09/15 09:40:39;;;;;;;2.35;0.82;;;;;;;;;;5039135;28;20053;-69
2022/09/15 09:43:06;;;;;;;2.47;1.10;;;;;;;;;;5040463;28;20478;-69
2022/09/15 09:45:32;;;;;;;5.30;1.02;;;;;;;;;;5040041;28;20045;-69
2022/09/15 09:48:21;;;;;;;1.10;0.80;;;;;;;;;;5040269;28;20048;-68
2022/09/15 09:50:49;;;;;;;2.88;0.90;;;;;;;;;;5032787;28;20195;-68
2022/09/15 09:53:32;;;;;;;1.58;1.30;;;;;;;;;;5036702;28;20067;-68
2022/09/15 09:56:21;;;;;;;2.03;0.80;;;;;;;;;;5040119;28;20577;-68
2022/09/15 09:58:47;;;;;;;6.90;0.70;;;;;;;;;;5033071;28;20072;-69
2022/09/15 10:01:18;;;;;;;3.70;1.10;;;;;;;;;;5035849;28;20049;-68
2022/09/15 10:03:44;;;;;;;0.85;0.70;;;;;;;;;;5040319;28;20083;-69
2022/09/15 10:06:11;;;;;;;1.67;0.77;;;;;;;;;;5040468;28;20084;-68
2022/09/15 10:08:50;;;;;;;1.00;0.80;;;;;;;;;;5018064;28;20046;-69
2022/09/15 10:11:16;;;;;;;3.35;0.80;;;;;;;;;;5035823;28;20041;-69
2022/09/15 10:13:54;;;;;;;1.08;0.80;;;;;;;;;;5040151;28;20082;-69
2022/09/15 10:16:21;;;;;;;3.88;0.68;;;;;;;;;;5039307;28;20498;-68
2022/09/15 10:18:49;;;;;;;0.55;0.45;;;;;;;;;;5039878;28;20132;-68
2022/09/15 10:21:21;;;;;;;1.02;0.50;;;;;;;;;;5038594;28;20049;-68
2022/09/15 10:23:46;;;;;;;2.70;0.80;;;;;;;;;;5039609;28;20091;-69
2022/09/15 10:26:14;;;;;;;0.90;0.68;;;;;;;;;;5039853;28;20135;-69
2022/09/15 10:28:40;;;;;;;1.45;0.60;;;;;;;;;;5039362;28;20426;-69
2022/09/15 10:31:09;;;;;;;1.58;0.70;;;;;;;;;;5039552;28;20095;-69
2022/09/15 10:33:39;;;;;;;1.80;0.80;;;;;;;;;;5039303;28;20553;-68
2022/09/15 10:36:16;;;;;;;2.15;0.52;;;;;;;;;;5040012;28;20037;-69
2022/09/15 10:38:45;;;;;;;1.13;0.73;;;;;;;;;;5037553;28;20057;-70
2022/09/15 10:41:30;;;;;;;0.80;0.70;;;;;;;;;;5039456;28;20045;-70
2022/09/15 10:44:24;;;;;;;2.08;0.60;;;;;;;;;;5042566;28;20548;-70
2022/09/15 10:47:05;;;;;;;1.73;0.90;;;;;;;;;;5035799;28;20506;-70
2022/09/15 10:49:55;;;;;;;4.22;0.60;;;;;;;;;;5042051;28;20041;-70
2022/09/15 10:52:42;;;;;;;1.80;0.70;;;;;;;;;;5034331;28;20460;-70
2022/09/15 10:55:25;;;;;;;3.25;0.80;;;;;;;;;;5042568;28;20060;-70
2022/09/15 10:58:04;;;;;;;1.73;0.70;;;;;;;;;;5036272;28;20053;-70
2022/09/15 11:00:41;;;;;;;2.75;0.70;;;;;;;;;;5042463;28;20068;-70
2022/09/15 11:03:23;;;;;;;8.05;0.90;;;;;;;;;;5022059;28;20057;-69
2022/09/15 11:06:12;;;;;;;0.77;0.77;;;;;;;;;;5042193;28;20045;-70
2022/09/15 11:08:40;;;;;;;2.30;0.63;;;;;;;;;;5042198;28;20057;-68
2022/09/15 11:11:43;;;;;;;0.88;0.70;;;;;;;;;;5042669;28;20037;-69
2022/09/15 11:14:50;;;;;;;1.90;0.65;;;;;;;;;;5042590;28;20052;-69
2022/09/15 11:17:28;;;;;;;2.28;0.70;;;;;;;;;;4986565;28;20460;-70
2022/09/15 11:20:14;;;;;;;0.98;0.70;;;;;;;;;;5042347;28;20141;-70
2022/09/15 11:23:05;;;;;;;3.40;0.75;;;;;;;;;;5042289;28;20060;-69
2022/09/15 11:25:34;;;;;;;2.20;0.82;;;;;;;;;;5023977;28;20060;-69
2022/09/15 11:28:28;;;;;;;1.92;0.65;;;;;;;;;;5041862;28;20064;-70
2022/09/15 11:31:13;;;;;;;4.07;1.00;;;;;;;;;;5034668;28;20072;-69
2022/09/15 11:33:57;;;;;;;1.63;0.90;;;;;;;;;;5043324;28;20048;-69
2022/09/15 11:36:34;;;;;;;0.68;0.65;;;;;;;;;;5022626;28;20048;-69
2022/09/15 11:39:09;;;;;;;3.03;1.13;;;;;;;;;;5041837;28;20858;-69
2022/09/15 11:41:57;;;;;;;2.35;0.70;;;;;;;;;;5041611;28;20422;-69
2022/09/15 11:44:33;;;;;;;2.25;0.68;;;;;;;;;;5023771;28;20049;-69
2022/09/15 11:47:23;;;;;;;0.60;0.60;;;;;;;;;;5042939;28;20075;-69
2022/09/15 11:49:55;;;;;;;0.80;0.80;;;;;;;;;;5041245;28;20049;-69
2022/09/15 11:52:55;;;;;;;1.00;0.70;;;;;;;;;;5041529;28;20124;-71
2022/09/15 11:55:33;;;;;;;4.57;0.90;;;;;;;;;;5042648;28;20052;-70
2022/09/15 11:58:04;;;;;;;2.17;0.80;;;;;;;;;;5044696;28;20048;-70
2022/09/15 12:00:30;;;;;;;2.10;1.10;;;;;;;;;;5040873;28;20988;-70
2022/09/15 12:03:29;;;;;;;0.93;0.80;;;;;;;;;;5041173;28;20049;-70
2022/09/15 12:06:02;;;;;;;1.33;0.70;;;;;;;;;;5040179;28;20036;-70
2022/09/15 12:08:32;;;;;;;0.80;0.80;;;;;;;;;;5040581;28;20045;-70
2022/09/15 12:11:04;;;;;;;0.82;0.75;;;;;;;;;;5042010;28;20041;-69
2022/09/15 12:13:30;;;;;;;0.75;0.70;;;;;;;;;;5041975;28;20048;-70
2022/09/15 12:15:56;;;;;;;1.25;0.70;;;;;;;;;;5041848;28;20052;-70
2022/09/15 12:18:27;;;;;;;0.68;0.68;;;;;;;;;;5041015;28;20080;-69
2022/09/15 12:21:01;;;;;;;16.42;0.85;;;;;;;;;;5041474;28;20052;-69
2022/09/15 12:23:38;;;;;;;1.05;0.60;;;;;;;;;;5041342;28;20059;-69
2022/09/15 12:26:13;;;;;;;2.67;0.77;;;;;;;;;;5041334;28;20142;-69
2022/09/15 12:28:50;;;;;;;1.95;0.70;;;;;;;;;;5040910;28;20135;-69
2022/09/15 12:31:21;;;;;;;1.58;0.95;;;;;;;;;;5040609;28;20052;-68
2022/09/15 12:34:04;;;;;;;0.90;0.77;;;;;;;;;;5040731;28;20060;-69
2022/09/15 12:36:46;;;;;;;2.17;0.70;;;;;;;;;;5040527;28;20045;-69
2022/09/15 12:39:25;;;;;;;0.82;0.43;;;;;;;;;;5036666;28;20087;-70
2022/09/15 12:42:04;;;;;;;0.73;0.50;;;;;;;;;;5040669;28;20428;-70
2022/09/15 12:44:53;;;;;;;6.65;0.60;;;;;;;;;;5039960;28;20040;-69
2022/09/15 12:47:32;;;;;;;1.10;0.60;;;;;;;;;;5040731;28;20045;-70
2022/09/15 12:50:13;;;;;;;0.30;0.30;;;;;;;;;;5040995;28;20044;-70
2022/09/15 12:52:47;;;;;;;1.25;0.65;;;;;;;;;;5040171;28;20140;-69
2022/09/15 12:55:37;;;;;;;3.67;0.30;;;;;;;;;;5040163;28;20683;-69
2022/09/15 12:58:17;;;;;;;0.40;0.40;;;;;;;;;;5039828;28;20048;-69
2022/09/15 13:00:44;;;;;;;0.52;0.35;;;;;;;;;;5033795;28;20059;-69
2022/09/15 13:03:56;;;;;;;3.03;0.70;;;;;;;;;;5036823;28;20487;-69
2022/09/15 13:06:24;;;;;;;1.55;0.40;;;;;;;;;;5021885;28;20139;-69
2022/09/15 13:09:02;;;;;;;0.52;0.30;;;;;;;;;;5040638;28;20076;-69
2022/09/15 13:11:38;;;;;;;0.55;0.52;;;;;;;;;;5015048;28;20048;-68
2022/09/15 13:14:05;;;;;;;0.60;0.50;;;;;;;;;;5041983;28;20140;-68
2022/09/15 13:16:44;;;;;;;1.02;0.40;;;;;;;;;;5022441;28;20041;-69
2022/09/15 13:19:25;;;;;;;0.38;0.38;;;;;;;;;;5039762;28;20087;-71
2022/09/15 13:22:09;;;;;;;0.30;0.30;;;;;;;;;;5040553;28;20555;-70
2022/09/15 13:24:41;;;;;;;4.53;0.40;;;;;;;;;;5040069;28;20044;-70
2022/09/15 13:27:07;;;;;;;0.57;0.50;;;;;;;;;;5039776;28;20493;-70
2022/09/15 13:29:45;;;;;;;0.57;0.47;;;;;;;;;;5039717;28;20056;-70
2022/09/15 13:32:25;;;;;;;2.72;0.40;;;;;;;;;;5039290;28;20047;-71
2022/09/15 13:35:34;;;;;;;0.50;0.50;;;;;;;;;;5018179;28;20045;-72
2022/09/15 13:38:17;;;;;;;0.40;0.40;;;;;;;;;;4984146;28;20053;-72
2022/09/15 13:41:01;;;;;;;0.65;0.40;;;;;;;;;;5031020;28;20084;-71
2022/09/15 13:43:44;;;;;;;1.40;0.60;;;;;;;;;;5037696;28;20045;-71
2022/09/15 13:46:51;;;;;;;2.08;0.70;;;;;;;;;;5040188;28;20056;-71
2022/09/15 13:49:38;;;;;;;3.47;0.70;;;;;;;;;;5005820;28;20057;-70
2022/09/15 13:52:22;;;;;;;0.57;0.57;;;;;;;;;;5038758;28;20889;-71
2022/09/15 13:55:07;;;;;;;1.95;0.60;;;;;;;;;;5002930;28;20095;-71
2022/09/15 13:57:35;;;;;;;2.20;0.40;;;;;;;;;;5039283;28;20123;-71
2022/09/15 14:00:02;;;;;;;0.63;0.45;;;;;;;;;;5039276;28;20049;-70
2022/09/15 14:02:30;;;;;;;1.58;0.60;;;;;;;;;;5038776;28;20041;-71
2022/09/15 14:04:55;;;;;;;0.63;0.38;;;;;;;;;;5040062;28;20056;-71
2022/09/15 14:07:23;;;;;;;0.47;0.47;;;;;;;;;;5040276;28;20543;-71
2022/09/15 14:09:49;;;;;;;2.42;0.60;;;;;;;;;;5039856;28;20520;-70
2022/09/15 14:12:16;;;;;;;0.93;0.40;;;;;;;;;;5038207;28;20041;-71
2022/09/15 14:14:49;;;;;;;0.90;0.65;;;;;;;;;;5039305;28;20127;-71
2022/09/15 14:17:19;;;;;;;1.85;0.70;;;;;;;;;;5042943;28;20080;-71
2022/09/15 14:19:48;;;;;;;0.70;0.70;;;;;;;;;;5043386;28;20579;-70
2022/09/15 14:22:16;;;;;;;0.77;0.57;;;;;;;;;;5042387;28;20114;-71
2022/09/15 14:24:42;;;;;;;3.28;0.50;;;;;;;;;;5043705;28;20134;-71
2022/09/15 14:27:09;;;;;;;1.58;0.60;;;;;;;;;;5044598;28;20070;-70
2022/09/15 14:29:40;;;;;;;0.38;0.38;;;;;;;;;;5044012;28;20136;-70
2022/09/15 14:32:05;;;;;;;1.93;0.80;;;;;;;;;;5043874;28;20110;-71
2022/09/15 14:34:35;;;;;;;1.05;0.60;;;;;;;;;;5042671;28;20044;-71
2022/09/15 14:37:03;;;;;;;1.42;0.50;;;;;;;;;;5043829;28;20107;-71
2022/09/15 14:39:29;;;;;;;2.70;0.70;;;;;;;;;;5043555;28;20045;-70
2022/09/15 14:41:55;;;;;;;2.92;0.40;;;;;;;;;;5021015;28;20049;-71
2022/09/15 14:44:27;;;;;;;1.02;0.60;;;;;;;;;;5039483;28;20409;-71
2022/09/15 14:46:53;;;;;;;0.90;0.60;;;;;;;;;;5044095;28;20099;-70
2022/09/15 14:49:19;;;;;;;1.20;0.50;;;;;;;;;;5043190;28;20040;-72
2022/09/15 14:51:47;;;;;;;0.68;0.55;;;;;;;;;;5043868;28;20140;-73
2022/09/15 14:54:31;;;;;;;0.63;0.63;;;;;;;;;;5042988;28;20053;-73
2022/09/15 14:57:00;;;;;;;3.22;1.10;;;;;;;;;;5039190;28;20541;-72
2022/09/15 14:59:38;;;;;;;1.02;0.93;;;;;;;;;;5041813;28;20045;-72
2022/09/15 15:02:26;;;;;;;4.43;1.10;;;;;;;;;;5003640;28;20049;-73
2022/09/15 15:05:00;;;;;;;2.05;1.00;;;;;;;;;;5019696;28;20498;-72
2022/09/15 15:07:29;;;;;;;0.75;0.75;;;;;;;;;;5015221;28;20060;-73
2022/09/15 15:09:59;;;;;;;1.25;0.80;;;;;;;;;;5042570;28;20113;-72
2022/09/15 15:12:32;;;;;;;0.70;0.70;;;;;;;;;;5048406;28;20413;-72
2022/09/15 15:14:58;;;;;;;3.10;1.17;;;;;;;;;;5046340;28;20048;-71